createdAt,value
2022-08-14T00:02:01.526Z,10.52
2022-08-14T00:04:34.106Z,11.35
2022-08-14T00:07:06.938Z,13.23
2022-08-14T00:09:55.243Z,12.27
2022-08-14T00:12:48.154Z,11.27
2022-08-14T00:15:16.980Z,13.02
2022-08-14T00:17:53.253Z,9.43
2022-08-14T00:20:30.787Z,12.52
2022-08-14T00:23:08.533Z,12.65
2022-08-14T00:25:43.282Z,9.20
2022-08-14T00:28:29.231Z,9.48
2022-08-14T00:31:08.099Z,12.52
2022-08-14T00:33:52.142Z,11.95
2022-08-14T00:36:35.837Z,11.85
2022-08-14T00:39:10.586Z,11.70
2022-08-14T00:41:39.433Z,7.97
2022-08-14T00:44:10.750Z,10.10
2022-08-14T00:46:39.149Z,8.88
2022-08-14T00:49:11.464Z,11.20
2022-08-14T00:51:41.131Z,10.65
2022-08-14T00:54:21.523Z,10.02
2022-08-14T00:56:54.796Z,10.50
2022-08-14T00:59:25.805Z,14.98
2022-08-14T01:01:57.347Z,15.05
2022-08-14T01:04:38.258Z,9.70
2022-08-14T01:07:19.794Z,9.70
2022-08-14T01:09:50.884Z,12.38
2022-08-14T01:12:27.029Z,11.02
2022-08-14T01:14:58.263Z,10.85
2022-08-14T01:17:50.614Z,10.52
2022-08-14T01:20:39.792Z,12.65
2022-08-14T01:23:16.203Z,11.25
2022-08-14T01:25:49.248Z,14.85
2022-08-14T01:28:47.047Z,11.63
2022-08-14T01:31:14.219Z,11.20
2022-08-14T01:35:15.699Z,12.95
2022-08-14T01:36:38.953Z,14.80
2022-08-14T01:39:13.399Z,13.95
2022-08-14T01:41:44.304Z,13.55
2022-08-14T01:44:32.059Z,13.32
2022-08-14T01:47:05.802Z,14.50
2022-08-14T01:49:35.648Z,16.08
2022-08-14T01:52:57.684Z,12.40
2022-08-14T01:55:04.136Z,14.20
2022-08-14T01:58:00.938Z,16.33
2022-08-14T02:00:27.622Z,13.35
2022-08-14T02:02:56.980Z,14.18
2022-08-14T02:05:35.838Z,15.30
2022-08-14T02:08:09.738Z,15.63
2022-08-14T02:10:46.604Z,13.23
2022-08-14T02:13:16.840Z,13.77
2022-08-14T02:15:48.698Z,12.05
2022-08-14T02:18:18.713Z,13.50
2022-08-14T02:20:48.706Z,12.65
2022-08-14T02:23:29.206Z,11.25
2022-08-14T02:26:24.356Z,14.38
2022-08-14T02:28:59.490Z,13.95
2022-08-14T02:31:42.280Z,13.63
2022-08-14T02:34:22.451Z,12.05
2022-08-14T02:37:04.947Z,12.85
2022-08-14T02:39:37.455Z,13.98
2022-08-14T02:42:13.358Z,12.00
2022-08-14T02:44:43.297Z,14.45
2022-08-14T02:47:20.632Z,14.68
2022-08-14T02:49:54.766Z,13.50
2022-08-14T02:52:55.600Z,12.90
2022-08-14T02:55:19.850Z,13.30
2022-08-14T02:58:02.890Z,13.90
2022-08-14T03:00:35.142Z,10.43
2022-08-14T03:03:07.868Z,13.55
2022-08-14T03:05:41.310Z,15.90
2022-08-14T03:08:15.206Z,12.93
2022-08-14T03:10:49.274Z,12.05
2022-08-14T03:13:22.224Z,13.07
2022-08-14T03:15:55.499Z,12.43
2022-08-14T03:18:31.889Z,14.15
2022-08-14T03:21:06.128Z,13.90
2022-08-14T03:23:38.479Z,15.48
2022-08-14T03:26:08.454Z,15.68
2022-08-14T03:28:40.404Z,12.20
2022-08-14T03:31:13.410Z,16.90
2022-08-14T03:33:43.091Z,13.30
2022-08-14T03:37:51.281Z,12.80
2022-08-14T03:39:15.880Z,12.85
2022-08-14T03:41:51.621Z,11.98
2022-08-14T03:45:26.540Z,14.30
2022-08-14T03:47:11.688Z,16.00
2022-08-14T03:49:42.204Z,11.60
2022-08-14T03:52:28.042Z,15.70
2022-08-14T03:55:00.381Z,13.57
2022-08-14T03:57:32.801Z,17.58
2022-08-14T04:00:14.053Z,17.75
2022-08-14T04:02:59.450Z,16.95
2022-08-14T04:05:27.458Z,14.40
2022-08-14T04:08:08.804Z,14.52
2022-08-14T04:10:43.432Z,15.45
2022-08-14T04:13:12.451Z,15.90
2022-08-14T04:15:56.264Z,15.70
2022-08-14T04:18:30.505Z,13.75
2022-08-14T04:20:59.273Z,15.20
2022-08-14T04:23:29.358Z,17.90
2022-08-14T04:26:08.188Z,12.75
2022-08-14T04:29:07.548Z,13.70
2022-08-14T04:32:59.108Z,12.48
2022-08-14T04:34:20.742Z,12.48
2022-08-14T04:37:12.547Z,10.68
2022-08-14T04:39:58.780Z,11.95
2022-08-14T04:42:47.695Z,11.32
2022-08-14T04:45:23.210Z,13.82
2022-08-14T04:48:12.508Z,12.40
2022-08-14T04:50:43.873Z,10.93
2022-08-14T04:53:15.616Z,12.93
2022-08-14T04:55:47.776Z,8.45
2022-08-14T04:58:22.003Z,8.93
2022-08-14T05:01:01.337Z,8.85
2022-08-14T05:03:33.437Z,8.70
2022-08-14T05:06:04.032Z,8.57
2022-08-14T05:08:50.704Z,10.70
2022-08-14T05:11:24.150Z,7.53
2022-08-14T05:14:17.325Z,8.00
2022-08-14T05:16:40.476Z,5.35
2022-08-14T05:19:17.601Z,4.78
2022-08-14T05:22:17.266Z,4.22
2022-08-14T05:24:50.225Z,5.35
2022-08-14T05:27:22.923Z,4.18
2022-08-14T05:29:53.844Z,3.55
2022-08-14T05:32:27.289Z,2.88
2022-08-14T05:34:58.842Z,3.45
2022-08-14T05:37:29.680Z,3.75
2022-08-14T05:39:59.523Z,2.10
2022-08-14T05:42:34.389Z,3.20
2022-08-14T05:45:05.199Z,2.17
2022-08-14T05:47:41.086Z,2.85
2022-08-14T05:50:17.321Z,3.72
2022-08-14T05:52:51.122Z,2.05
2022-08-14T05:55:22.142Z,2.70
2022-08-14T05:57:53.864Z,1.52
2022-08-14T06:00:29.259Z,1.35
2022-08-14T06:03:00.654Z,4.47
2022-08-14T06:05:38.732Z,1.30
2022-08-14T06:08:21.843Z,1.50
2022-08-14T06:11:05.513Z,1.83
2022-08-14T06:13:44.558Z,0.75
2022-08-14T06:16:13.222Z,1.10
2022-08-14T06:18:41.290Z,1.10
2022-08-14T06:21:13.500Z,0.82
2022-08-14T06:23:42.796Z,1.83
2022-08-14T06:26:11.536Z,2.13
2022-08-14T06:28:40.471Z,2.58
2022-08-14T06:31:13.508Z,2.47
2022-08-14T06:35:01.485Z,2.47
2022-08-14T06:36:31.512Z,1.48
2022-08-14T06:38:59.676Z,1.30
2022-08-14T06:41:57.137Z,1.05
2022-08-14T06:44:16.793Z,1.10
2022-08-14T06:46:49.228Z,0.60
2022-08-14T06:49:17.639Z,0.80
2022-08-14T06:51:47.055Z,1.17
2022-08-14T06:54:18.281Z,3.70
2022-08-14T06:56:54.516Z,0.88
2022-08-14T06:59:25.187Z,1.08
2022-08-14T07:02:13.248Z,1.20
2022-08-14T07:05:01.709Z,1.60
2022-08-14T07:07:39.336Z,1.13
2022-08-14T07:10:13.301Z,1.23
2022-08-14T07:13:01.588Z,1.50
2022-08-14T07:15:34.143Z,1.30
2022-08-14T07:18:09.033Z,1.50
2022-08-14T07:20:37.703Z,3.97
2022-08-14T07:23:19.808Z,2.08
2022-08-14T07:25:51.319Z,2.10
2022-08-14T07:28:23.332Z,2.80
2022-08-14T07:30:52.343Z,2.25
2022-08-14T07:33:24.429Z,2.50
2022-08-14T07:35:59.357Z,1.92
2022-08-14T07:38:33.995Z,3.20
2022-08-14T07:41:14.232Z,1.58
2022-08-14T07:43:52.980Z,2.20
2022-08-14T07:46:29.555Z,1.73
2022-08-14T07:48:59.387Z,1.67
2022-08-14T07:51:36.722Z,1.73
2022-08-14T07:54:11.384Z,1.20
2022-08-14T07:56:46.900Z,1.30
2022-08-14T07:59:20.586Z,2.83
2022-08-14T08:02:19.458Z,1.85
2022-08-14T08:04:52.956Z,1.95
2022-08-14T08:07:29.389Z,4.30
2022-08-14T08:10:02.371Z,2.17
2022-08-14T08:12:32.443Z,2.83
2022-08-14T08:15:07.437Z,2.15
2022-08-14T08:17:53.180Z,2.58
2022-08-14T08:20:27.497Z,3.10
2022-08-14T08:23:00.579Z,2.25
2022-08-14T08:25:40.130Z,2.47
2022-08-14T08:28:22.001Z,2.33
2022-08-14T08:30:52.481Z,1.88
2022-08-14T08:33:22.758Z,2.08
2022-08-14T08:35:51.727Z,1.52
2022-08-14T08:39:18.621Z,1.17
2022-08-14T08:41:13.599Z,2.40
2022-08-14T08:43:46.100Z,1.63
2022-08-14T08:46:21.720Z,1.83
2022-08-14T08:51:24.986Z,1.67
2022-08-14T08:54:02.719Z,1.17
2022-08-14T08:56:44.056Z,1.50
2022-08-14T08:59:30.809Z,1.52
2022-08-14T09:02:01.476Z,1.27
2022-08-14T09:04:37.310Z,1.50
2022-08-14T09:07:14.553Z,1.38
2022-08-14T09:09:56.889Z,2.22
2022-08-14T09:12:33.417Z,1.65
2022-08-14T09:15:03.005Z,1.85
2022-08-14T09:17:33.210Z,2.42
2022-08-14T09:20:03.922Z,2.60
2022-08-14T09:22:35.682Z,1.73
2022-08-14T09:25:07.005Z,3.35
2022-08-14T09:27:39.636Z,2.10
2022-08-14T09:30:31.442Z,3.17
2022-08-14T09:33:12.734Z,1.83
2022-08-14T09:35:56.480Z,2.03
2022-08-14T09:38:36.427Z,8.13
2022-08-14T09:41:17.786Z,2.20
2022-08-14T09:43:58.220Z,2.53
2022-08-14T09:46:27.759Z,2.60
2022-08-14T09:48:59.954Z,2.13
2022-08-14T09:51:33.056Z,3.20
2022-08-14T09:54:23.076Z,2.50
2022-08-14T09:56:57.079Z,2.85
2022-08-14T09:59:33.683Z,3.08
2022-08-14T10:02:07.064Z,2.88
2022-08-14T10:04:41.224Z,4.45
2022-08-14T10:07:14.221Z,3.83
2022-08-14T10:10:00.106Z,4.65
2022-08-14T10:12:44.841Z,4.38
2022-08-14T10:15:25.041Z,4.50
2022-08-14T10:18:08.023Z,5.13
2022-08-14T10:20:43.509Z,4.05
2022-08-14T10:23:17.875Z,3.97
2022-08-14T10:25:50.622Z,3.45
2022-08-14T10:29:03.646Z,5.53
2022-08-14T10:31:20.234Z,4.95
2022-08-14T10:34:02.809Z,5.25
2022-08-14T10:36:36.988Z,3.92
2022-08-14T10:39:16.649Z,4.07
2022-08-14T10:41:49.293Z,9.20
2022-08-14T10:44:29.732Z,3.95
2022-08-14T10:47:39.554Z,4.88
2022-08-14T10:49:58.418Z,5.15
2022-08-14T10:52:33.775Z,11.32
2022-08-14T10:55:13.813Z,2.72
2022-08-14T10:57:51.237Z,4.22
2022-08-14T11:00:29.781Z,6.32
2022-08-14T11:03:07.872Z,4.00
2022-08-14T11:05:43.706Z,4.85
2022-08-14T11:08:14.508Z,10.18
2022-08-14T11:10:45.900Z,4.30
2022-08-14T11:13:21.251Z,5.43
2022-08-14T11:15:53.658Z,4.63
2022-08-14T11:18:32.497Z,5.47
2022-08-14T11:21:09.894Z,4.78
2022-08-14T11:23:43.767Z,4.20
2022-08-14T11:26:16.618Z,5.90
2022-08-14T11:28:49.780Z,3.65
2022-08-14T11:31:22.225Z,6.13
2022-08-14T11:33:57.641Z,3.63
2022-08-14T11:36:35.153Z,4.18
2022-08-14T11:39:33.522Z,4.88
2022-08-14T11:42:55.289Z,5.88
2022-08-14T11:44:56.731Z,3.92
2022-08-14T11:47:35.128Z,5.55
2022-08-14T11:50:33.623Z,4.53
2022-08-14T11:53:07.683Z,4.10
2022-08-14T11:55:39.366Z,3.70
2022-08-14T11:58:10.990Z,4.28
2022-08-14T12:00:49.692Z,3.95
2022-08-14T12:03:27.088Z,3.85
2022-08-14T12:06:29.555Z,4.65
2022-08-14T12:09:00.133Z,3.75
2022-08-14T12:11:43.878Z,5.40
2022-08-14T12:14:30.758Z,3.58
2022-08-14T12:17:09.316Z,4.95
2022-08-14T12:19:46.175Z,4.68
2022-08-14T12:22:35.218Z,6.63
2022-08-14T12:25:10.114Z,3.20
2022-08-14T12:27:41.611Z,3.60
2022-08-14T12:30:21.094Z,3.10
2022-08-14T12:32:49.239Z,3.70
2022-08-14T12:35:18.891Z,4.30
2022-08-14T12:37:52.139Z,2.55
2022-08-14T12:40:24.286Z,3.58
2022-08-14T12:53:14.385Z,2.42
2022-08-14T12:56:21.789Z,3.05
2022-08-14T12:58:51.538Z,2.70
2022-08-14T13:01:22.205Z,3.15
2022-08-14T13:03:51.807Z,3.15
2022-08-14T13:06:21.533Z,3.92
2022-08-14T13:08:53.045Z,2.20
2022-08-14T13:11:25.590Z,3.25
2022-08-14T13:13:59.877Z,2.63
2022-08-14T13:16:37.969Z,3.83
2022-08-14T13:19:11.228Z,2.72
2022-08-14T13:21:58.613Z,1.92
2022-08-14T13:24:33.508Z,2.25
2022-08-14T13:27:04.694Z,2.50
2022-08-14T13:29:40.466Z,3.17
2022-08-14T13:32:10.427Z,3.10
2022-08-14T13:34:41.044Z,4.70
2022-08-14T13:37:09.687Z,3.97
2022-08-14T13:39:39.655Z,5.13
2022-08-14T13:42:13.690Z,3.45
2022-08-14T13:44:43.386Z,4.55
2022-08-14T13:47:14.696Z,6.97
2022-08-14T13:49:57.515Z,4.72
2022-08-14T13:52:52.253Z,5.18
2022-08-14T13:55:19.029Z,4.82
2022-08-14T13:57:57.728Z,4.53
2022-08-14T14:00:35.601Z,3.90
2022-08-14T14:03:07.296Z,5.53
2022-08-14T14:05:52.179Z,4.03
2022-08-14T14:08:46.021Z,7.90
2022-08-14T14:11:16.123Z,5.53
2022-08-14T14:13:45.698Z,5.32
2022-08-14T14:16:26.582Z,5.05
2022-08-14T14:19:06.082Z,4.22
2022-08-14T14:21:37.256Z,5.97
2022-08-14T14:24:06.015Z,5.25
2022-08-14T14:26:38.856Z,4.35
2022-08-14T14:29:08.080Z,4.85
2022-08-14T14:31:38.908Z,5.57
2022-08-14T14:34:28.994Z,5.85
2022-08-14T14:37:04.406Z,5.88
2022-08-14T14:39:37.860Z,7.03
2022-08-14T14:42:09.293Z,4.53
2022-08-14T14:44:45.841Z,4.45
2022-08-14T14:47:22.705Z,4.55
2022-08-14T14:49:57.112Z,5.03
2022-08-14T14:52:27.697Z,6.07
2022-08-14T14:54:57.167Z,5.47
2022-08-14T14:57:35.247Z,4.32
2022-08-14T15:00:06.571Z,8.25
2022-08-14T15:02:41.237Z,6.18
2022-08-14T15:05:12.570Z,5.40
2022-08-14T15:07:41.401Z,5.15
2022-08-14T15:10:27.843Z,6.00
2022-08-14T15:13:04.120Z,6.28
2022-08-14T15:15:33.679Z,6.43
2022-08-14T15:18:14.747Z,6.22
2022-08-14T15:20:43.156Z,6.00
2022-08-14T15:23:16.185Z,9.88
2022-08-14T15:25:52.383Z,6.55
2022-08-14T15:28:23.395Z,7.68
2022-08-14T15:30:58.978Z,7.00
2022-08-14T15:34:01.252Z,6.95
2022-08-14T15:36:35.257Z,8.75
2022-08-14T15:39:03.534Z,6.97
2022-08-14T15:41:33.831Z,9.18
2022-08-14T15:44:18.952Z,10.15
2022-08-14T15:46:55.015Z,8.75
2022-08-14T15:49:24.239Z,7.32
2022-08-14T15:51:52.333Z,7.57
2022-08-14T15:54:21.963Z,6.18
2022-08-14T15:56:59.655Z,7.88
2022-08-14T15:59:50.434Z,9.18
2022-08-14T16:02:24.459Z,8.00
2022-08-14T16:04:56.094Z,7.07
2022-08-14T16:07:27.320Z,8.93
2022-08-14T16:10:25.362Z,8.13
2022-08-14T16:12:46.685Z,8.15
2022-08-14T16:15:17.881Z,6.63
2022-08-14T16:17:47.017Z,8.15
2022-08-14T16:20:41.845Z,7.53
2022-08-14T16:23:10.338Z,6.68
2022-08-14T16:25:40.606Z,7.57
2022-08-14T16:28:08.892Z,8.13
2022-08-14T16:30:40.612Z,7.90
2022-08-14T16:33:11.341Z,5.97
2022-08-14T16:36:01.509Z,8.10
2022-08-14T16:38:44.757Z,7.32
2022-08-14T16:41:22.263Z,8.15
2022-08-14T16:43:59.248Z,8.57
2022-08-14T16:46:34.714Z,7.85
2022-08-14T16:49:05.500Z,8.00
2022-08-14T16:51:38.332Z,6.45
2022-08-14T16:54:33.956Z,7.53
2022-08-14T16:57:13.715Z,6.63
2022-08-14T16:59:52.552Z,6.63
2022-08-14T17:02:39.010Z,7.78
2022-08-14T17:05:21.709Z,8.07
2022-08-14T17:08:33.278Z,7.25
2022-08-14T17:11:11.159Z,7.60
2022-08-14T17:13:57.727Z,7.85
2022-08-14T17:16:35.825Z,8.70
2022-08-14T17:19:09.996Z,8.18
2022-08-14T17:21:47.494Z,7.68
2022-08-14T17:24:57.594Z,10.07
2022-08-14T17:27:07.304Z,10.98
2022-08-14T17:29:44.672Z,8.93
2022-08-14T17:32:44.595Z,8.40
2022-08-14T17:35:16.563Z,10.48
2022-08-14T17:37:55.814Z,14.35
2022-08-14T17:40:30.677Z,7.70
2022-08-14T17:43:02.528Z,7.30
2022-08-14T17:45:45.366Z,7.88
2022-08-14T17:49:10.158Z,9.10
2022-08-14T17:51:24.054Z,8.13
2022-08-14T17:54:02.390Z,7.57
2022-08-14T17:56:33.026Z,8.38
2022-08-14T17:59:04.203Z,5.90
2022-08-14T18:01:45.919Z,6.70
2022-08-14T18:04:24.387Z,7.78
2022-08-14T18:07:16.283Z,9.98
2022-08-14T18:09:57.143Z,8.65
2022-08-14T18:12:32.913Z,10.35
2022-08-14T18:15:15.923Z,7.78
2022-08-14T18:17:52.961Z,9.48
2022-08-14T18:21:39.925Z,7.35
2022-08-14T18:23:15.488Z,9.00
2022-08-14T18:25:51.843Z,10.55
2022-08-14T18:28:50.876Z,9.25
2022-08-14T18:31:43.568Z,11.65
2022-08-14T18:34:32.336Z,10.35
2022-08-14T18:37:12.524Z,12.27
2022-08-14T18:40:02.740Z,11.95
2022-08-14T18:42:44.162Z,12.07
2022-08-14T18:45:16.070Z,13.32
2022-08-14T18:48:14.801Z,11.25
2022-08-14T18:50:52.257Z,12.25
2022-08-14T18:53:24.908Z,9.82
2022-08-14T18:56:02.114Z,12.05
2022-08-14T18:58:48.870Z,13.57
2022-08-14T19:01:29.452Z,10.35
2022-08-14T19:03:59.215Z,13.38
2022-08-14T19:06:40.092Z,12.60
2022-08-14T19:09:09.119Z,12.32
2022-08-14T19:11:50.470Z,11.27
2022-08-14T19:14:48.304Z,12.57
2022-08-14T19:17:43.043Z,12.98
2022-08-14T19:20:46.799Z,10.93
2022-08-14T19:23:19.371Z,13.35
2022-08-14T19:25:56.958Z,13.32
2022-08-14T19:28:31.538Z,11.00
2022-08-14T19:31:55.107Z,13.05
2022-08-14T19:34:48.039Z,14.82
2022-08-14T19:37:46.005Z,15.57
2022-08-14T19:40:19.567Z,11.52
2022-08-14T19:42:49.592Z,12.68
2022-08-14T19:45:18.648Z,16.58
2022-08-14T19:47:50.027Z,13.20
2022-08-14T19:50:38.733Z,13.05
2022-08-14T19:53:16.741Z,13.13
2022-08-14T19:55:58.741Z,14.45
2022-08-14T19:58:54.769Z,14.52
2022-08-14T20:01:36.490Z,14.40
2022-08-14T20:04:45.308Z,15.77
2022-08-14T20:07:00.111Z,15.23
2022-08-14T20:11:06.480Z,15.23
2022-08-14T20:12:29.239Z,14.18
2022-08-14T20:15:08.961Z,16.42
2022-08-14T20:17:40.143Z,17.38
2022-08-14T20:20:22.379Z,14.18
2022-08-14T20:23:11.125Z,14.88
2022-08-14T20:25:56.484Z,13.63
2022-08-14T20:28:35.499Z,13.43
2022-08-14T20:31:17.678Z,14.52
2022-08-14T20:34:06.436Z,16.10
2022-08-14T20:36:40.666Z,13.13
2022-08-14T20:39:15.172Z,9.55
2022-08-14T20:41:49.016Z,12.00
2022-08-14T20:44:40.709Z,14.70
2022-08-14T20:47:15.907Z,13.93
2022-08-14T20:49:43.928Z,9.45
2022-08-14T20:52:19.198Z,13.23
2022-08-14T20:54:51.773Z,12.32
2022-08-14T20:57:20.390Z,11.15
2022-08-14T20:59:53.448Z,11.18
2022-08-14T21:02:38.707Z,11.88
2022-08-14T21:05:21.827Z,12.63
2022-08-14T21:08:09.965Z,13.20
2022-08-14T21:10:51.243Z,12.75
2022-08-14T21:14:09.153Z,12.02
2022-08-14T21:16:25.962Z,14.23
2022-08-14T21:19:00.033Z,10.60
2022-08-14T21:21:40.615Z,15.18
2022-08-14T21:24:40.129Z,10.23
2022-08-14T21:27:12.272Z,12.73
2022-08-14T21:29:55.463Z,13.40
2022-08-14T21:32:47.120Z,14.20
2022-08-14T21:35:28.525Z,11.80
2022-08-14T21:37:57.884Z,11.85
2022-08-14T21:40:40.869Z,9.50
2022-08-14T21:43:17.977Z,12.25
2022-08-14T21:45:53.216Z,13.30
2022-08-14T21:48:25.360Z,10.65
2022-08-14T21:51:01.065Z,11.80
2022-08-14T21:53:58.213Z,13.25
2022-08-14T21:56:37.415Z,10.80
2022-08-14T21:59:10.687Z,9.93
2022-08-14T22:02:00.231Z,10.40
2022-08-14T22:04:34.221Z,13.27
2022-08-14T22:07:07.100Z,11.57
2022-08-14T22:09:36.198Z,8.25
2022-08-14T22:12:07.271Z,9.82
2022-08-14T22:14:43.198Z,8.43
2022-08-14T22:17:17.010Z,14.77
2022-08-14T22:19:54.174Z,11.27
2022-08-14T22:22:25.819Z,9.60
2022-08-14T22:25:00.026Z,10.73
2022-08-14T22:27:31.210Z,13.15
2022-08-14T22:30:02.201Z,11.95
2022-08-14T22:32:56.664Z,10.43
2022-08-14T22:35:23.296Z,10.85
2022-08-14T22:38:35.894Z,10.13
2022-08-14T22:41:02.227Z,10.52
2022-08-14T22:43:33.575Z,9.43
2022-08-14T22:46:06.192Z,11.02
2022-08-14T22:48:45.050Z,11.38
2022-08-14T22:51:14.815Z,12.82
2022-08-14T22:53:45.233Z,13.27
2022-08-14T22:56:20.291Z,14.77
2022-08-14T22:58:53.984Z,14.25
2022-08-14T23:01:25.682Z,12.98
2022-08-14T23:04:35.568Z,14.02
2022-08-14T23:07:05.249Z,14.27
2022-08-14T23:09:38.201Z,15.32
2022-08-14T23:12:25.761Z,11.40
2022-08-14T23:14:57.334Z,18.30
2022-08-14T23:17:26.439Z,12.48
2022-08-14T23:19:56.542Z,12.05
2022-08-14T23:22:26.119Z,18.92
2022-08-14T23:24:57.892Z,11.93
2022-08-14T23:27:31.864Z,11.93
2022-08-14T23:30:31.825Z,12.80
2022-08-14T23:33:03.809Z,11.48
2022-08-14T23:35:33.327Z,10.35
2022-08-14T23:38:02.814Z,11.43
2022-08-14T23:40:32.598Z,11.52
2022-08-14T23:43:07.895Z,16.17
2022-08-14T23:45:39.284Z,11.77
2022-08-14T23:48:10.074Z,12.63
2022-08-14T23:50:44.189Z,11.00
2022-08-14T23:53:28.400Z,14.13
2022-08-14T23:56:12.767Z,14.57
2022-08-14T23:58:42.230Z,13.70
